Main page
METAR-TAF:

METAR-TAF

Airports :

Nut Tree Airport

Vacaville, California, United States

latitude: 38-22-40N, longitude: 121-57-27W, elevation: 112 ft

Current weather observation

The report was made 1 hour and 11 minutes ago, at 12:53 UTC
Wind 8 mph from the North/Northwest
Temperature 46°F
Humidity 49%
Pressure 30.04 in. Hg
Visibility: 10 miles
Clear sky

METAR: KVCB 271253Z AUTO 34007KT 10SM CLR 08/M02 A3004 RMK AO2 SLP173 T00831022

Time: 06:04 (14:04 UTC)


TAF: missing

Weather observations and forecasts of more than 4000 airports (METAR and TAF reports).

The available stations are represented by yellow and red dots on the map.

Hover mouse over dot to see the name of the station.

Then click to see weather observations and forecasts.

To change the map : click on the green buttons with a black cross to zoom in, on the green button with a dash to zoom out, or on the green arrows for adjacent maps.


METAR-TAF: